Charleston, West Virginia
Current Conditions -  °F | °C
As of 6:54 PM on Wednesday 26 Nov 2014 (Local Time) from KCRW Reporting Station
Haze Haze  
Wind Chill: 37°   Ceiling: 500
Heat Index: 37°   Visibility: 4mi
Dew Point: 35°   Wind: 3mph
Humidity: 93%   Direction: 80°E
Pressure: 30.01"   Gusts: NA
Location:  38.35°N, 81.64°W
Report Text: KCRW 262354Z 08003KT 4SM BR BKN005 OVC038 03/02 A3001 RMK AO2 SLP168 BKN005 V SCT 60001 T00280017 10028 20017 50000
Loading
Personal Weather Stations






























Interactive Weather Map New forecast layout! Learn more

10-Day Weather Forecast

Advertisements
Track Severe Weather on mobile